createdAt,value
2023-10-02T00:00:34.998Z,25.37
2023-10-02T00:03:42.295Z,20.37
2023-10-02T00:06:48.951Z,21.43
2023-10-02T00:09:51.869Z,20.10
2023-10-02T00:13:01.111Z,20.83
2023-10-02T00:16:03.073Z,24.00
2023-10-02T00:19:19.953Z,23.43
2023-10-02T00:22:43.559Z,25.77
2023-10-02T00:25:53.615Z,22.33
2023-10-02T00:28:58.951Z,22.07
2023-10-02T00:32:01.737Z,22.50
2023-10-02T00:35:04.730Z,23.90
2023-10-02T00:38:06.795Z,26.90
2023-10-02T00:41:09.814Z,26.43
2023-10-02T00:44:15.450Z,28.70
2023-10-02T00:47:17.745Z,23.80
2023-10-02T00:50:20.796Z,27.57
2023-10-02T00:53:41.106Z,24.30
2023-10-02T00:56:43.723Z,34.27
2023-10-02T00:59:47.217Z,27.93
2023-10-02T01:02:52.347Z,25.87
2023-10-02T01:06:00.084Z,27.90
2023-10-02T01:09:02.914Z,25.90
2023-10-02T01:12:05.359Z,29.90
2023-10-02T01:15:12.331Z,28.63
2023-10-02T01:18:23.321Z,24.97
2023-10-02T01:21:26.085Z,22.87
2023-10-02T01:24:28.628Z,24.03
2023-10-02T01:27:41.977Z,24.47
2023-10-02T01:30:48.665Z,24.30
2023-10-02T01:33:54.050Z,22.53
2023-10-02T01:36:56.131Z,25.63
2023-10-02T01:40:18.095Z,27.43
2023-10-02T01:43:25.960Z,23.70
2023-10-02T01:46:29.894Z,26.40
2023-10-02T01:49:32.233Z,31.90
2023-10-02T01:52:46.179Z,23.43
2023-10-02T01:56:01.853Z,25.47
2023-10-02T01:59:15.991Z,24.60
2023-10-02T02:02:20.485Z,27.10
2023-10-02T02:05:22.538Z,30.10
2023-10-02T02:08:24.598Z,28.23
2023-10-02T02:11:30.445Z,27.63
2023-10-02T02:14:43.193Z,28.00
2023-10-02T02:17:45.509Z,27.67
2023-10-02T02:21:00.209Z,31.03
2023-10-02T02:24:05.236Z,28.43
2023-10-02T02:27:09.201Z,30.67
2023-10-02T02:30:12.273Z,29.53
2023-10-02T02:33:15.214Z,39.13
2023-10-02T02:36:23.471Z,31.57
2023-10-02T02:39:26.181Z,29.87
2023-10-02T02:42:28.606Z,26.77
2023-10-02T02:45:32.017Z,29.50
2023-10-02T02:48:45.603Z,28.50
2023-10-02T02:51:50.120Z,26.07
2023-10-02T02:55:12.515Z,33.40
2023-10-02T02:58:14.504Z,31.60
2023-10-02T03:01:23.675Z,26.80
2023-10-02T03:04:29.167Z,28.23
2023-10-02T03:07:31.124Z,30.67
2023-10-02T03:10:42.157Z,30.30
2023-10-02T03:13:45.267Z,33.07
2023-10-02T03:16:47.815Z,27.97
2023-10-02T03:19:51.615Z,29.17
2023-10-02T03:22:58.705Z,29.13
2023-10-02T03:26:01.147Z,30.00
2023-10-02T03:29:07.579Z,29.80
2023-10-02T03:32:12.827Z,30.23
2023-10-02T03:35:18.404Z,29.73
2023-10-02T03:38:22.161Z,31.13
2023-10-02T03:41:45.938Z,31.43
2023-10-02T03:44:48.272Z,31.10
2023-10-02T03:48:02.803Z,32.00
2023-10-02T03:51:06.507Z,28.83
2023-10-02T03:54:19.841Z,32.50
2023-10-02T03:57:40.785Z,31.63
2023-10-02T04:00:46.117Z,35.13
2023-10-02T04:04:05.973Z,29.07
2023-10-02T04:07:09.992Z,28.30
2023-10-02T04:10:15.631Z,28.67
2023-10-02T04:13:24.654Z,34.83
2023-10-02T04:16:30.197Z,31.33
2023-10-02T04:19:34.758Z,31.13
2023-10-02T04:22:38.502Z,32.57
2023-10-02T04:25:44.421Z,26.87
2023-10-02T04:28:51.500Z,31.03
2023-10-02T04:32:12.497Z,32.67
2023-10-02T04:35:32.846Z,37.40
2023-10-02T04:38:51.412Z,33.43
2023-10-02T04:42:11.582Z,31.80
2023-10-02T04:45:36.284Z,31.10
2023-10-02T04:48:41.293Z,27.53
2023-10-02T04:51:48.055Z,33.67
2023-10-02T04:55:07.813Z,31.17
2023-10-02T04:58:21.127Z,31.90
2023-10-02T05:01:31.122Z,32.07
2023-10-02T05:04:33.333Z,34.30
2023-10-02T05:07:38.107Z,32.67
2023-10-02T05:10:40.134Z,29.27
2023-10-02T05:13:57.539Z,29.97
2023-10-02T05:17:20.976Z,32.83
2023-10-02T05:20:27.694Z,27.20
2023-10-02T05:23:32.442Z,29.70
2023-10-02T05:26:37.529Z,31.73
2023-10-02T05:29:42.832Z,30.53
2023-10-02T05:32:45.011Z,32.00
2023-10-02T05:35:47.029Z,28.10
2023-10-02T05:39:08.967Z,32.33
2023-10-02T05:42:17.005Z,31.67
2023-10-02T05:45:20.123Z,30.83
2023-10-02T05:48:25.791Z,28.77
2023-10-02T05:51:47.528Z,28.87
2023-10-02T05:54:55.248Z,30.83
2023-10-02T05:58:00.082Z,29.67
2023-10-02T06:01:06.600Z,31.73
2023-10-02T06:04:08.796Z,27.70
2023-10-02T06:07:13.614Z,33.17
2023-10-02T06:10:28.666Z,27.30
2023-10-02T06:13:38.682Z,26.10
2023-10-02T06:16:47.345Z,25.80
2023-10-02T06:19:50.172Z,28.27
2023-10-02T06:23:05.605Z,28.70
2023-10-02T06:26:11.789Z,28.90
2023-10-02T06:29:21.520Z,31.47
2023-10-02T06:32:24.561Z,31.37
2023-10-02T06:35:28.373Z,27.20
2023-10-02T06:38:31.659Z,29.53
2023-10-02T06:41:34.574Z,27.10
2023-10-02T06:44:56.486Z,32.00
2023-10-02T06:47:58.612Z,24.73
2023-10-02T06:51:00.865Z,27.63
2023-10-02T06:54:08.671Z,25.23
2023-10-02T06:57:14.898Z,28.63
2023-10-02T07:00:23.452Z,29.50
2023-10-02T07:03:26.510Z,29.57
2023-10-02T07:06:30.560Z,24.50
2023-10-02T07:09:35.093Z,28.83
2023-10-02T07:12:44.591Z,28.07
2023-10-02T07:15:48.325Z,26.10
2023-10-02T07:18:55.537Z,26.27
2023-10-02T07:21:57.550Z,29.27
2023-10-02T07:25:00.245Z,27.07
2023-10-02T07:28:04.614Z,22.90
2023-10-02T07:31:12.007Z,27.87
2023-10-02T07:34:17.309Z,26.20
2023-10-02T07:37:23.516Z,23.67
2023-10-02T07:40:48.346Z,25.90
2023-10-02T07:43:54.157Z,20.87
2023-10-02T07:46:57.712Z,22.90
2023-10-02T07:50:00.730Z,21.53
2023-10-02T07:53:07.134Z,27.27
2023-10-02T07:56:16.578Z,25.00
2023-10-02T07:59:20.161Z,22.93
2023-10-02T08:02:24.991Z,21.97
2023-10-02T08:05:27.385Z,24.93
2023-10-02T08:08:35.007Z,25.50
2023-10-02T08:11:41.217Z,26.80
2023-10-02T08:14:48.451Z,23.50
2023-10-02T08:17:51.160Z,25.90
2023-10-02T08:20:55.224Z,25.40
2023-10-02T08:23:57.858Z,26.33
2023-10-02T08:26:59.845Z,26.88
2023-10-02T08:30:02.657Z,26.63
2023-10-02T08:33:34.157Z,22.52
2023-10-02T08:36:42.286Z,22.98
2023-10-02T08:39:46.385Z,23.83
2023-10-02T08:42:48.493Z,24.30
2023-10-02T08:45:51.640Z,24.75
2023-10-02T08:48:56.758Z,26.88
2023-10-02T08:52:02.375Z,27.67
2023-10-02T08:55:35.481Z,26.52
2023-10-02T08:58:38.377Z,22.13
2023-10-02T09:01:40.915Z,26.25
2023-10-02T09:04:58.121Z,24.65
2023-10-02T09:08:00.069Z,25.55
2023-10-02T09:11:02.118Z,25.75
2023-10-02T09:14:20.362Z,25.70
2023-10-02T09:17:23.730Z,24.05
2023-10-02T09:20:40.373Z,23.20
2023-10-02T09:23:51.751Z,23.02
2023-10-02T09:26:59.093Z,23.38
2023-10-02T09:30:23.283Z,29.90
2023-10-02T09:33:31.414Z,27.48
2023-10-02T09:37:12.858Z,21.73
2023-10-02T09:40:17.983Z,25.45
2023-10-02T09:43:26.105Z,28.17
2023-10-02T09:46:30.996Z,23.75
2023-10-02T09:49:34.807Z,22.27
2023-10-02T09:52:41.331Z,24.50
2023-10-02T09:55:43.506Z,24.02
2023-10-02T09:58:56.854Z,23.88
2023-10-02T10:02:23.303Z,25.52
2023-10-02T10:05:45.364Z,21.05
2023-10-02T10:09:15.588Z,22.60
2023-10-02T10:12:44.315Z,20.65
2023-10-02T10:15:49.528Z,20.95
2023-10-02T10:19:17.767Z,23.88
2023-10-02T10:22:42.071Z,24.20
2023-10-02T10:25:45.652Z,23.27
2023-10-02T10:28:55.179Z,23.08
2023-10-02T10:31:57.708Z,23.40
2023-10-02T10:35:14.354Z,22.13
2023-10-02T10:38:51.703Z,19.92
2023-10-02T10:42:02.592Z,22.75
2023-10-02T10:45:11.433Z,22.80
2023-10-02T10:48:23.663Z,24.08
2023-10-02T10:51:29.415Z,21.42
2023-10-02T10:54:56.853Z,24.83
2023-10-02T10:58:00.666Z,25.00
2023-10-02T11:01:06.820Z,24.00
2023-10-02T11:04:08.795Z,21.50
2023-10-02T11:07:25.941Z,23.58
2023-10-02T11:10:32.426Z,24.08
2023-10-02T11:14:02.066Z,24.00
2023-10-02T11:17:06.333Z,21.23
2023-10-02T11:20:09.178Z,21.90
2023-10-02T11:23:11.566Z,21.15
2023-10-02T11:26:15.297Z,24.27
2023-10-02T11:29:24.022Z,19.85
2023-10-02T11:32:27.056Z,25.20
2023-10-02T11:35:39.754Z,22.83
2023-10-02T11:38:42.531Z,24.08
2023-10-02T11:41:45.208Z,23.58
2023-10-02T11:44:47.976Z,23.23
2023-10-02T11:47:50.331Z,20.50
2023-10-02T11:50:53.013Z,22.88
2023-10-02T11:53:54.996Z,24.45
2023-10-02T11:56:59.186Z,25.23
2023-10-02T12:00:09.988Z,22.27
2023-10-02T12:03:13.059Z,20.38
2023-10-02T12:06:15.783Z,21.40
2023-10-02T12:09:19.718Z,21.75
2023-10-02T12:12:22.207Z,20.77
2023-10-02T12:15:24.907Z,21.58
2023-10-02T12:18:27.802Z,22.70
2023-10-02T12:21:30.036Z,19.42
2023-10-02T12:24:32.129Z,20.75
2023-10-02T12:27:34.519Z,19.25
2023-10-02T12:30:36.653Z,20.48
2023-10-02T12:33:40.257Z,21.17
2023-10-02T12:36:43.219Z,23.23
2023-10-02T12:39:45.584Z,20.33
2023-10-02T12:42:47.583Z,23.83
2023-10-02T12:45:50.833Z,23.27
2023-10-02T12:48:53.234Z,25.10
2023-10-02T12:51:56.244Z,23.38
2023-10-02T12:54:58.633Z,23.35
2023-10-02T12:58:00.758Z,22.75
2023-10-02T13:01:03.216Z,20.58
2023-10-02T13:04:05.564Z,25.13
2023-10-02T13:07:07.612Z,21.40
2023-10-02T13:10:10.511Z,23.42
2023-10-02T13:13:13.280Z,22.17
2023-10-02T13:16:15.662Z,20.60
2023-10-02T13:19:18.301Z,22.70
2023-10-02T13:22:23.075Z,23.40
2023-10-02T13:25:28.188Z,22.50
2023-10-02T13:28:30.182Z,22.02
2023-10-02T13:31:32.854Z,20.40
2023-10-02T13:34:34.891Z,22.02
2023-10-02T13:37:37.718Z,26.20
2023-10-02T13:40:39.830Z,24.70
2023-10-02T13:43:53.686Z,21.75
2023-10-02T13:46:55.911Z,23.63
2023-10-02T13:49:58.991Z,19.58
2023-10-02T13:53:02.984Z,21.63
2023-10-02T13:56:10.845Z,21.77
2023-10-02T13:59:13.205Z,26.58
2023-10-02T14:02:15.238Z,24.00
2023-10-02T14:05:17.767Z,22.88
2023-10-02T14:08:20.724Z,21.05
2023-10-02T14:11:25.246Z,23.05
2023-10-02T14:14:27.503Z,23.55
2023-10-02T14:17:35.370Z,20.60
2023-10-02T14:20:41.177Z,20.83
2023-10-02T14:23:46.016Z,19.02
2023-10-02T14:26:48.016Z,22.10
2023-10-02T14:29:50.018Z,17.23
2023-10-02T14:32:52.586Z,20.27
2023-10-02T14:35:56.748Z,18.08
2023-10-02T14:38:59.981Z,18.45
2023-10-02T14:42:05.726Z,19.73
2023-10-02T14:45:08.218Z,16.98
2023-10-02T14:48:36.768Z,18.23
2023-10-02T14:51:41.592Z,19.25
2023-10-02T14:54:43.782Z,18.73
2023-10-02T14:57:49.335Z,18.67
2023-10-02T15:00:51.581Z,19.20
2023-10-02T15:03:55.467Z,19.15
2023-10-02T15:06:57.612Z,17.77
2023-10-02T15:10:01.041Z,20.83
2023-10-02T15:13:03.608Z,21.85
2023-10-02T15:16:13.902Z,21.58
2023-10-02T15:19:16.302Z,16.80
2023-10-02T15:22:18.193Z,18.27
2023-10-02T15:25:21.654Z,22.08
2023-10-02T15:28:23.997Z,21.17
2023-10-02T15:31:26.689Z,23.92
2023-10-02T15:34:28.740Z,22.48
2023-10-02T15:37:30.795Z,20.83
2023-10-02T15:40:35.024Z,19.55
2023-10-02T15:43:39.722Z,17.83
2023-10-02T15:46:43.694Z,20.65
2023-10-02T15:49:47.062Z,20.20
2023-10-02T15:52:51.772Z,19.38
2023-10-02T15:55:53.836Z,18.13
2023-10-02T15:58:55.878Z,18.85
2023-10-02T16:01:58.541Z,17.33
2023-10-02T16:05:00.989Z,18.13
2023-10-02T16:08:03.985Z,18.60
2023-10-02T16:11:06.043Z,20.33
2023-10-02T16:14:08.225Z,18.27
2023-10-02T16:17:10.347Z,17.40
2023-10-02T16:20:16.688Z,18.13
2023-10-02T16:23:19.176Z,17.23
2023-10-02T16:26:24.825Z,18.65
2023-10-02T16:29:26.862Z,20.17
2023-10-02T16:32:29.218Z,18.53
2023-10-02T16:35:32.955Z,19.80
2023-10-02T16:38:36.035Z,19.23
2023-10-02T16:41:38.396Z,18.80
2023-10-02T16:44:43.834Z,17.73
2023-10-02T16:47:46.884Z,19.60
2023-10-02T16:50:48.916Z,16.57
2023-10-02T16:53:51.099Z,18.30
2023-10-02T16:56:53.537Z,17.37
2023-10-02T16:59:55.862Z,17.83
2023-10-02T17:03:00.003Z,18.23
2023-10-02T17:06:10.255Z,18.10
2023-10-02T17:09:12.758Z,19.17
2023-10-02T17:12:15.011Z,16.50
2023-10-02T17:15:18.606Z,14.90
2023-10-02T17:18:20.920Z,17.70
2023-10-02T17:21:33.921Z,18.87
2023-10-02T17:24:35.958Z,20.03
2023-10-02T17:27:38.125Z,19.13
2023-10-02T17:30:40.422Z,17.30
2023-10-02T17:33:44.502Z,16.27
2023-10-02T17:36:47.998Z,19.47
2023-10-02T17:39:52.141Z,16.53
2023-10-02T17:42:57.086Z,17.57
2023-10-02T17:45:59.671Z,16.27
2023-10-02T17:49:02.024Z,16.83
2023-10-02T17:52:05.842Z,18.30
2023-10-02T17:55:10.823Z,16.17
2023-10-02T17:58:13.464Z,16.70
2023-10-02T18:01:15.637Z,16.23
2023-10-02T18:04:22.428Z,13.97
2023-10-02T18:07:25.611Z,14.83
2023-10-02T18:10:28.230Z,16.97
2023-10-02T18:13:30.681Z,19.00
2023-10-02T18:16:34.862Z,16.50
2023-10-02T18:19:37.738Z,13.93
2023-10-02T18:22:45.846Z,15.17
2023-10-02T18:25:57.237Z,14.77
2023-10-02T18:29:01.388Z,13.00
2023-10-02T18:32:04.920Z,14.23
2023-10-02T18:35:09.048Z,13.77
2023-10-02T18:38:11.763Z,14.87
2023-10-02T18:41:14.138Z,15.57
2023-10-02T18:44:16.507Z,12.90
2023-10-02T18:47:22.319Z,14.20
2023-10-02T18:50:25.487Z,15.03
2023-10-02T18:53:29.059Z,13.20
2023-10-02T18:56:32.548Z,13.37
2023-10-02T18:59:35.064Z,13.83
2023-10-02T19:02:37.744Z,13.50
2023-10-02T19:05:44.536Z,15.00
2023-10-02T19:08:48.811Z,16.60
2023-10-02T19:11:51.493Z,15.07
2023-10-02T19:14:56.204Z,13.73
2023-10-02T19:17:59.935Z,15.83
2023-10-02T19:21:05.044Z,14.50
2023-10-02T19:24:10.548Z,11.97
2023-10-02T19:27:14.099Z,14.00
2023-10-02T19:30:19.110Z,14.80
2023-10-02T19:33:21.745Z,14.23
2023-10-02T19:36:27.863Z,14.93
2023-10-02T19:39:31.068Z,14.60
2023-10-02T19:42:33.697Z,13.40
2023-10-02T19:45:38.031Z,12.67
2023-10-02T19:48:40.878Z,12.30
2023-10-02T19:51:43.246Z,13.73
2023-10-02T19:54:46.955Z,15.77
2023-10-02T19:57:49.081Z,14.07
2023-10-02T20:00:53.692Z,12.07
2023-10-02T20:03:56.192Z,14.17
2023-10-02T20:06:58.596Z,11.57
2023-10-02T20:10:01.017Z,14.47
2023-10-02T20:13:07.456Z,13.37
2023-10-02T20:16:10.014Z,12.93
2023-10-02T20:19:13.765Z,12.87
2023-10-02T20:22:15.760Z,13.40
2023-10-02T20:25:19.249Z,12.43
2023-10-02T20:28:23.383Z,11.67
2023-10-02T20:31:25.707Z,8.00
2023-10-02T20:34:37.254Z,13.03
2023-10-02T20:37:42.600Z,9.57
2023-10-02T20:40:45.931Z,9.30
2023-10-02T20:43:48.320Z,11.23
2023-10-02T20:46:59.307Z,7.77
2023-10-02T20:50:10.258Z,9.30
2023-10-02T20:53:12.217Z,9.27
2023-10-02T20:56:16.892Z,7.77
2023-10-02T20:59:21.574Z,9.37
2023-10-02T21:02:24.621Z,10.53
2023-10-02T21:05:28.516Z,7.23
2023-10-02T21:08:30.653Z,7.73
2023-10-02T21:11:33.830Z,11.27
2023-10-02T21:14:36.666Z,8.67
2023-10-02T21:17:39.116Z,8.37
2023-10-02T21:20:46.250Z,11.23
2023-10-02T21:23:48.490Z,10.33
2023-10-02T21:26:51.087Z,9.67
2023-10-02T21:29:53.538Z,8.83
2023-10-02T21:32:56.978Z,9.93
2023-10-02T21:36:06.233Z,10.63
2023-10-02T21:39:08.757Z,10.00
2023-10-02T21:42:11.162Z,10.20
2023-10-02T21:45:13.599Z,11.23
2023-10-02T21:48:15.721Z,10.33
2023-10-02T21:51:17.783Z,8.47
2023-10-02T21:54:19.812Z,10.20
2023-10-02T21:57:24.545Z,8.93
2023-10-02T22:00:46.697Z,8.67
2023-10-02T22:03:54.283Z,8.37
2023-10-02T22:06:56.383Z,7.83
2023-10-02T22:09:58.969Z,8.33
2023-10-02T22:13:00.897Z,9.53
2023-10-02T22:16:05.840Z,9.30
2023-10-02T22:19:10.911Z,6.37
2023-10-02T22:22:14.676Z,10.83
2023-10-02T22:25:17.254Z,9.67
2023-10-02T22:28:20.151Z,9.77
2023-10-02T22:31:24.621Z,7.63
2023-10-02T22:34:41.130Z,6.93
2023-10-02T22:37:44.392Z,7.67
2023-10-02T22:40:46.423Z,8.57
2023-10-02T22:43:54.768Z,7.90
2023-10-02T22:46:58.313Z,10.53
2023-10-02T22:50:05.427Z,9.57
2023-10-02T22:53:09.060Z,15.77
2023-10-02T22:56:14.029Z,8.37
2023-10-02T22:59:16.101Z,7.67
2023-10-02T23:02:18.954Z,9.10
2023-10-02T23:05:23.311Z,8.93
2023-10-02T23:08:25.314Z,7.90
2023-10-02T23:11:28.789Z,7.23
2023-10-02T23:14:32.610Z,6.87
2023-10-02T23:17:36.264Z,8.47
2023-10-02T23:20:38.479Z,7.13
2023-10-02T23:23:41.032Z,7.27
2023-10-02T23:26:43.029Z,5.37
2023-10-02T23:29:48.947Z,6.40
2023-10-02T23:32:55.859Z,6.50
2023-10-02T23:35:59.584Z,6.77
2023-10-02T23:39:03.415Z,8.53
2023-10-02T23:42:06.084Z,6.60
2023-10-02T23:45:18.393Z,8.40
2023-10-02T23:48:21.326Z,6.60
2023-10-02T23:51:29.369Z,7.40
2023-10-02T23:54:31.445Z,6.50
2023-10-02T23:57:33.336Z,12.17
